Grace Chapel, North Carolina
Current Conditions -  °F | °C
As of 4:53 PM on Thursday 27 Nov 2014 (Local Time) from KHKY Reporting Station
Scattered Clouds Scattered Clouds  
Wind Chill: 35°   Ceiling: Unl
Heat Index: 41°   Visibility: 10mi
Dew Point: 23°   Wind: 10mph
Humidity: 49%   Direction: 310°NW
Pressure: 30.17"   Gusts: NA
Location:  35.83°N, 81.4147°W
Report Text: KHKY 272153Z AUTO 31009KT 10SM SCT055 05/M05 A3017 RMK AO2 SLP211 T00501050
Loading
Personal Weather Stations






























Interactive Weather Map New forecast layout! Learn more

10-Day Weather Forecast

Advertisements
Track Severe Weather on mobile